createdAt,value
2023-05-07T00:00:08.148Z,36.42
2023-05-07T00:02:36.288Z,37.65
2023-05-07T00:05:04.531Z,37.33
2023-05-07T00:07:32.192Z,37.53
2023-05-07T00:09:59.625Z,36.08
2023-05-07T00:12:27.007Z,39.95
2023-05-07T00:14:54.538Z,41.08
2023-05-07T00:17:21.995Z,38.55
2023-05-07T00:19:49.421Z,40.67
2023-05-07T00:22:16.807Z,37.58
2023-05-07T00:24:44.353Z,37.75
2023-05-07T00:27:11.743Z,38.90
2023-05-07T00:29:39.221Z,38.55
2023-05-07T00:32:07.020Z,38.92
2023-05-07T00:34:34.442Z,39.75
2023-05-07T00:37:04.246Z,39.03
2023-05-07T00:39:32.812Z,39.92
2023-05-07T00:42:01.679Z,39.10
2023-05-07T00:44:29.529Z,38.17
2023-05-07T00:47:03.454Z,37.35
2023-05-07T00:49:37.559Z,39.35
2023-05-07T00:52:05.148Z,39.78
2023-05-07T00:54:32.863Z,37.45
2023-05-07T00:57:00.470Z,40.28
2023-05-07T00:59:28.120Z,36.80
2023-05-07T01:01:55.708Z,37.35
2023-05-07T01:04:23.218Z,36.35
2023-05-07T01:06:51.596Z,31.80
2023-05-07T01:09:21.286Z,33.70
2023-05-07T01:11:49.593Z,33.90
2023-05-07T01:14:17.780Z,32.85
2023-05-07T01:16:45.461Z,35.95
2023-05-07T01:19:15.463Z,31.00
2023-05-07T01:21:45.964Z,33.97
2023-05-07T01:24:14.258Z,33.97
2023-05-07T01:26:41.965Z,32.80
2023-05-07T01:29:09.620Z,34.10
2023-05-07T01:31:37.784Z,32.20
2023-05-07T01:34:05.604Z,33.13
2023-05-07T01:36:34.296Z,30.48
2023-05-07T01:39:02.743Z,33.35
2023-05-07T01:41:30.091Z,32.67
2023-05-07T01:43:59.082Z,35.33
2023-05-07T01:46:28.877Z,31.35
2023-05-07T01:48:56.741Z,32.50
2023-05-07T01:51:24.530Z,30.50
2023-05-07T01:53:54.458Z,36.60
2023-05-07T01:56:22.267Z,35.22
2023-05-07T01:58:52.778Z,37.00
2023-05-07T02:01:20.483Z,35.40
2023-05-07T02:03:48.610Z,43.90
2023-05-07T02:06:23.106Z,43.35
2023-05-07T02:08:52.817Z,42.72
2023-05-07T02:11:21.013Z,44.78
2023-05-07T02:13:48.502Z,44.55
2023-05-07T02:16:15.928Z,45.20
2023-05-07T02:18:43.473Z,42.17
2023-05-07T02:21:10.921Z,41.13
2023-05-07T02:23:38.379Z,43.63
2023-05-07T02:26:06.576Z,40.50
2023-05-07T02:28:36.449Z,40.42
2023-05-07T02:31:06.099Z,37.17
2023-05-07T02:33:36.164Z,38.83
2023-05-07T02:36:09.479Z,37.45
2023-05-07T02:38:40.644Z,33.90
2023-05-07T02:41:08.416Z,36.80
2023-05-07T02:43:35.835Z,33.75
2023-05-07T02:46:03.852Z,33.45
2023-05-07T02:48:31.598Z,32.20
2023-05-07T02:50:59.477Z,32.85
2023-05-07T02:53:27.433Z,35.45
2023-05-07T02:56:04.437Z,33.35
2023-05-07T02:58:31.846Z,33.97
2023-05-07T03:01:01.232Z,31.05
2023-05-07T03:03:33.998Z,28.88
2023-05-07T03:06:01.750Z,29.20
2023-05-07T03:08:29.393Z,27.00
2023-05-07T03:10:56.927Z,27.10
2023-05-07T03:13:24.555Z,27.20
2023-05-07T03:15:52.963Z,24.52
2023-05-07T03:18:20.605Z,25.27
2023-05-07T03:20:48.248Z,25.48
2023-05-07T03:23:16.923Z,24.17
2023-05-07T03:25:44.500Z,22.58
2023-05-07T03:28:11.896Z,21.48
2023-05-07T03:30:45.943Z,24.25
2023-05-07T03:33:13.285Z,20.48
2023-05-07T03:35:40.817Z,21.02
2023-05-07T03:38:08.245Z,21.08
2023-05-07T03:40:37.743Z,20.70
2023-05-07T03:43:06.016Z,18.83
2023-05-07T03:45:36.364Z,19.52
2023-05-07T03:48:15.031Z,18.52
2023-05-07T03:50:42.594Z,14.15
2023-05-07T03:53:10.027Z,10.90
2023-05-07T03:55:40.261Z,9.93
2023-05-07T03:58:07.779Z,9.18
2023-05-07T04:00:39.230Z,8.82
2023-05-07T04:03:16.428Z,8.52
2023-05-07T04:05:44.033Z,7.78
2023-05-07T04:08:11.722Z,8.13
2023-05-07T04:10:42.467Z,11.43
2023-05-07T04:13:11.979Z,10.30
2023-05-07T04:15:39.453Z,11.30
2023-05-07T04:18:10.890Z,8.18
2023-05-07T04:20:39.515Z,8.93
2023-05-07T04:23:11.496Z,7.28
2023-05-07T04:25:39.301Z,8.07
2023-05-07T04:28:27.074Z,7.72
2023-05-07T04:30:54.754Z,7.90
2023-05-07T04:33:22.922Z,8.95
2023-05-07T04:35:51.536Z,6.47
2023-05-07T04:38:19.718Z,7.68
2023-05-07T04:40:49.664Z,7.25
2023-05-07T04:43:21.750Z,7.57
2023-05-07T04:45:52.255Z,6.53
2023-05-07T04:48:21.558Z,6.90
2023-05-07T04:50:51.277Z,8.27
2023-05-07T04:53:19.831Z,5.43
2023-05-07T04:55:47.588Z,7.38
2023-05-07T04:58:16.726Z,5.38
2023-05-07T05:00:50.263Z,8.90
2023-05-07T05:03:17.769Z,7.65
2023-05-07T05:05:45.663Z,7.57
2023-05-07T05:08:13.269Z,8.25
2023-05-07T05:10:44.486Z,6.78
2023-05-07T05:13:14.041Z,6.07
2023-05-07T05:15:42.883Z,7.43
2023-05-07T05:18:10.680Z,5.60
2023-05-07T05:20:40.146Z,6.80
2023-05-07T05:23:09.752Z,7.35
2023-05-07T05:25:40.512Z,7.75
2023-05-07T05:28:10.755Z,8.00
2023-05-07T05:30:38.493Z,7.57
2023-05-07T05:33:05.982Z,8.25
2023-05-07T05:35:33.738Z,8.10
2023-05-07T05:38:06.565Z,6.45
2023-05-07T05:40:35.058Z,8.68
2023-05-07T05:43:03.213Z,8.00
2023-05-07T05:45:31.300Z,6.80
2023-05-07T05:47:58.871Z,5.43
2023-05-07T05:50:26.475Z,6.40
2023-05-07T05:52:56.299Z,5.35
2023-05-07T05:55:24.533Z,7.43
2023-05-07T05:57:52.173Z,5.82
2023-05-07T06:00:23.367Z,7.50
2023-05-07T06:02:58.579Z,6.78
2023-05-07T06:05:26.838Z,4.90
2023-05-07T06:07:56.591Z,4.70
2023-05-07T06:10:25.181Z,5.65
2023-05-07T06:12:52.640Z,5.40
2023-05-07T06:15:20.423Z,4.35
2023-05-07T06:17:50.204Z,6.22
2023-05-07T06:20:18.116Z,9.50
2023-05-07T06:22:46.368Z,5.28
2023-05-07T06:25:16.015Z,6.07
2023-05-07T06:27:44.601Z,6.32
2023-05-07T06:30:12.335Z,5.93
2023-05-07T06:32:42.245Z,5.68
2023-05-07T06:35:10.854Z,5.05
2023-05-07T06:37:40.714Z,5.68
2023-05-07T06:40:09.786Z,4.20
2023-05-07T06:42:39.762Z,7.72
2023-05-07T06:45:35.903Z,5.85
2023-05-07T06:48:03.814Z,5.18
2023-05-07T06:50:36.107Z,6.65
2023-05-07T06:53:04.409Z,5.55
2023-05-07T06:55:32.873Z,6.15
2023-05-07T06:58:02.274Z,6.10
2023-05-07T07:00:29.910Z,6.47
2023-05-07T07:02:57.796Z,6.15
2023-05-07T07:05:28.354Z,5.32
2023-05-07T07:07:56.452Z,7.00
2023-05-07T07:10:24.441Z,5.65
2023-05-07T07:12:53.933Z,6.35
2023-05-07T07:15:22.392Z,5.57
2023-05-07T07:17:51.250Z,4.65
2023-05-07T07:20:18.920Z,8.00
2023-05-07T07:22:47.656Z,7.22
2023-05-07T07:25:17.049Z,7.32
2023-05-07T07:27:45.093Z,4.43
2023-05-07T07:30:14.197Z,5.03
2023-05-07T07:32:44.572Z,5.40
2023-05-07T07:35:12.067Z,4.78
2023-05-07T07:37:40.737Z,5.18
2023-05-07T07:40:08.740Z,6.00
2023-05-07T07:42:37.467Z,5.93
2023-05-07T07:45:05.611Z,6.05
2023-05-07T07:47:36.344Z,5.85
2023-05-07T07:50:03.843Z,7.63
2023-05-07T07:52:31.489Z,9.20
2023-05-07T07:54:58.966Z,8.20
2023-05-07T07:57:26.519Z,6.55
2023-05-07T07:59:54.605Z,6.07
2023-05-07T08:02:22.163Z,7.82
2023-05-07T08:04:51.030Z,6.22
2023-05-07T08:07:23.816Z,5.43
2023-05-07T08:09:51.523Z,5.68
2023-05-07T08:12:22.723Z,4.72
2023-05-07T08:14:50.185Z,6.88
2023-05-07T08:17:18.220Z,6.65
2023-05-07T08:19:46.831Z,5.30
2023-05-07T08:22:16.048Z,5.88
2023-05-07T08:24:43.587Z,7.15
2023-05-07T08:27:12.447Z,8.82
2023-05-07T08:29:42.324Z,6.65
2023-05-07T08:32:09.822Z,8.55
2023-05-07T08:34:37.446Z,6.03
2023-05-07T08:37:06.772Z,9.27
2023-05-07T08:39:34.928Z,6.97
2023-05-07T08:42:06.772Z,8.30
2023-05-07T08:44:36.404Z,5.97
2023-05-07T08:47:04.170Z,7.07
2023-05-07T08:49:32.934Z,9.73
2023-05-07T08:52:01.111Z,8.20
2023-05-07T08:54:30.389Z,9.95
2023-05-07T08:56:58.179Z,9.75
2023-05-07T08:59:26.079Z,11.02
2023-05-07T09:01:53.932Z,9.43
2023-05-07T09:04:21.654Z,10.18
2023-05-07T09:06:49.492Z,12.15
2023-05-07T09:09:19.947Z,11.55
2023-05-07T09:11:48.015Z,10.70
2023-05-07T09:14:19.198Z,11.18
2023-05-07T09:16:48.228Z,10.48
2023-05-07T09:19:15.915Z,12.55
2023-05-07T09:21:46.789Z,15.70
2023-05-07T09:24:17.081Z,13.52
2023-05-07T09:26:45.534Z,15.50
2023-05-07T09:29:14.911Z,13.38
2023-05-07T09:31:42.461Z,12.73
2023-05-07T09:34:13.123Z,12.63
2023-05-07T09:36:43.578Z,10.18
2023-05-07T09:39:12.546Z,10.65
2023-05-07T09:41:46.984Z,9.85
2023-05-07T09:44:20.857Z,11.48
2023-05-07T09:46:55.716Z,9.57
2023-05-07T09:49:31.690Z,10.05
2023-05-07T09:52:07.155Z,8.73
2023-05-07T09:54:38.912Z,9.00
2023-05-07T09:57:08.108Z,9.52
2023-05-07T09:59:36.551Z,7.88
2023-05-07T10:02:07.369Z,10.55
2023-05-07T10:04:41.948Z,8.88
2023-05-07T10:07:10.865Z,9.30
2023-05-07T10:09:40.445Z,9.52
2023-05-07T10:12:13.324Z,8.05
2023-05-07T10:14:41.153Z,8.93
2023-05-07T10:17:08.878Z,8.75
2023-05-07T10:19:37.914Z,8.27
2023-05-07T10:22:07.311Z,8.73
2023-05-07T10:24:40.697Z,8.30
2023-05-07T10:27:16.250Z,7.38
2023-05-07T10:30:05.537Z,9.15
2023-05-07T10:32:40.855Z,8.13
2023-05-07T10:35:14.353Z,9.00
2023-05-07T10:37:42.434Z,8.00
2023-05-07T10:40:11.275Z,9.50
2023-05-07T10:42:38.744Z,7.82
2023-05-07T10:45:17.730Z,11.43
2023-05-07T10:48:20.853Z,7.55
2023-05-07T10:51:17.493Z,8.95
2023-05-07T10:53:45.158Z,10.23
2023-05-07T10:56:21.483Z,10.63
2023-05-07T10:58:58.251Z,10.57
2023-05-07T11:01:49.544Z,12.38
2023-05-07T11:04:19.622Z,8.52
2023-05-07T11:07:29.427Z,9.50
2023-05-07T11:10:06.029Z,8.57
2023-05-07T11:12:47.481Z,10.02
2023-05-07T11:15:36.892Z,9.68
2023-05-07T11:18:08.150Z,9.70
2023-05-07T11:20:59.221Z,9.73
2023-05-07T11:23:52.893Z,10.23
2023-05-07T11:26:27.673Z,8.70
2023-05-07T11:28:55.713Z,10.02
2023-05-07T11:31:27.087Z,10.55
2023-05-07T11:33:56.026Z,9.65
2023-05-07T11:36:25.020Z,8.35
2023-05-07T11:38:54.898Z,8.82
2023-05-07T11:41:23.066Z,10.25
2023-05-07T11:44:00.411Z,8.20
2023-05-07T11:46:28.847Z,7.30
2023-05-07T11:48:57.227Z,7.47
2023-05-07T11:51:27.011Z,9.32
2023-05-07T11:53:54.956Z,6.80
2023-05-07T11:56:22.450Z,8.57
2023-05-07T11:58:50.815Z,6.13
2023-05-07T12:01:18.240Z,7.05
2023-05-07T12:03:47.449Z,5.45
2023-05-07T12:06:16.518Z,5.82
2023-05-07T12:08:47.079Z,5.97
2023-05-07T12:11:18.644Z,4.72
2023-05-07T12:13:46.249Z,5.50
2023-05-07T12:16:14.440Z,5.22
2023-05-07T12:18:42.401Z,5.18
2023-05-07T12:21:10.036Z,5.43
2023-05-07T12:23:38.225Z,6.57
2023-05-07T12:26:07.691Z,6.88
2023-05-07T12:28:40.339Z,6.70
2023-05-07T12:31:08.617Z,7.93
2023-05-07T12:33:37.050Z,5.50
2023-05-07T12:36:06.082Z,5.78
2023-05-07T12:38:37.105Z,6.60
2023-05-07T12:41:04.766Z,7.00
2023-05-07T12:43:32.220Z,6.68
2023-05-07T12:46:02.159Z,6.28
2023-05-07T12:48:29.898Z,6.60
2023-05-07T12:51:01.289Z,5.60
2023-05-07T12:53:29.656Z,6.05
2023-05-07T12:55:58.004Z,5.20
2023-05-07T12:58:27.837Z,6.82
2023-05-07T13:01:00.432Z,5.63
2023-05-07T13:03:31.437Z,7.03
2023-05-07T13:06:02.979Z,5.18
2023-05-07T13:08:30.549Z,6.10
2023-05-07T13:10:59.074Z,7.80
2023-05-07T13:13:27.259Z,6.18
2023-05-07T13:15:56.095Z,8.60
2023-05-07T13:18:23.790Z,8.02
2023-05-07T13:20:51.394Z,6.05
2023-05-07T13:23:19.193Z,7.18
2023-05-07T13:25:47.320Z,7.15
2023-05-07T13:28:16.869Z,9.18
2023-05-07T13:30:46.852Z,6.45
2023-05-07T13:33:14.559Z,6.07
2023-05-07T13:35:41.954Z,6.80
2023-05-07T13:38:09.395Z,6.13
2023-05-07T13:40:36.976Z,6.40
2023-05-07T13:43:04.539Z,6.72
2023-05-07T13:45:32.207Z,5.47
2023-05-07T13:47:59.993Z,6.13
2023-05-07T13:50:31.061Z,6.70
2023-05-07T13:52:58.858Z,6.20
2023-05-07T13:55:26.546Z,5.93
2023-05-07T13:58:01.601Z,6.78
2023-05-07T14:00:29.926Z,9.02
2023-05-07T14:02:58.970Z,5.53
2023-05-07T14:05:27.755Z,6.40
2023-05-07T14:07:55.730Z,6.65
2023-05-07T14:10:23.071Z,6.80
2023-05-07T14:12:50.660Z,7.88
2023-05-07T14:15:18.206Z,7.60
2023-05-07T14:17:46.061Z,7.68
2023-05-07T14:20:14.271Z,7.30
2023-05-07T14:22:41.931Z,7.40
2023-05-07T14:25:10.814Z,8.13
2023-05-07T14:27:38.473Z,8.27
2023-05-07T14:30:06.268Z,9.07
2023-05-07T14:32:34.394Z,8.00
2023-05-07T14:35:02.173Z,7.72
2023-05-07T14:37:29.776Z,10.88
2023-05-07T14:39:57.180Z,8.68
2023-05-07T14:42:24.821Z,8.82
2023-05-07T14:44:54.141Z,8.27
2023-05-07T14:47:21.901Z,8.93
2023-05-07T14:49:49.304Z,8.88
2023-05-07T14:52:16.986Z,9.43
2023-05-07T14:54:44.351Z,9.65
2023-05-07T14:57:17.311Z,9.45
2023-05-07T14:59:44.991Z,10.23
2023-05-07T15:02:13.415Z,10.52
2023-05-07T15:04:46.782Z,10.98
2023-05-07T15:07:17.657Z,9.55
2023-05-07T15:09:45.151Z,11.02
2023-05-07T15:12:12.858Z,9.93
2023-05-07T15:14:40.770Z,10.13
2023-05-07T15:17:08.636Z,10.77
2023-05-07T15:19:36.201Z,10.27
2023-05-07T15:22:03.898Z,9.77
2023-05-07T15:24:32.030Z,8.85
2023-05-07T15:26:59.672Z,11.45
2023-05-07T15:29:27.256Z,8.35
2023-05-07T15:31:55.491Z,9.73
2023-05-07T15:34:25.140Z,11.30
2023-05-07T15:36:52.601Z,10.73
2023-05-07T15:39:20.370Z,10.60
2023-05-07T15:41:48.261Z,12.50
2023-05-07T15:44:15.885Z,10.55
2023-05-07T15:46:43.505Z,10.15
2023-05-07T15:49:11.738Z,10.27
2023-05-07T15:51:39.179Z,10.77
2023-05-07T15:54:06.804Z,10.65
2023-05-07T15:56:34.356Z,12.60
2023-05-07T15:59:02.557Z,11.63
2023-05-07T16:01:30.110Z,11.73
2023-05-07T16:03:58.024Z,11.57
2023-05-07T16:06:25.445Z,10.73
2023-05-07T16:08:52.897Z,11.32
2023-05-07T16:11:20.386Z,10.07
2023-05-07T16:13:48.071Z,10.35
2023-05-07T16:16:15.762Z,11.73
2023-05-07T16:18:43.333Z,11.98
2023-05-07T16:21:10.878Z,11.25
2023-05-07T16:23:38.437Z,10.35
2023-05-07T16:26:06.010Z,13.07
2023-05-07T16:28:33.458Z,11.07
2023-05-07T16:31:01.057Z,12.00
2023-05-07T16:33:28.558Z,11.18
2023-05-07T16:35:56.045Z,11.55
2023-05-07T16:38:23.459Z,10.00
2023-05-07T16:40:50.876Z,11.10
2023-05-07T16:43:18.252Z,12.13
2023-05-07T16:45:46.731Z,11.45
2023-05-07T16:48:14.455Z,10.40
2023-05-07T16:50:44.544Z,12.77
2023-05-07T16:53:12.465Z,13.27
2023-05-07T16:55:40.367Z,11.82
2023-05-07T16:58:09.032Z,12.00
2023-05-07T17:00:48.926Z,12.80
2023-05-07T17:03:17.667Z,14.98
2023-05-07T17:05:45.312Z,15.30
2023-05-07T17:08:14.178Z,13.07
2023-05-07T17:10:42.129Z,14.25
2023-05-07T17:13:09.713Z,15.40
2023-05-07T17:15:37.230Z,14.80
2023-05-07T17:18:04.754Z,16.17
2023-05-07T17:20:32.317Z,15.10
2023-05-07T17:22:59.757Z,15.73
2023-05-07T17:25:27.184Z,18.17
2023-05-07T17:27:54.684Z,15.80
2023-05-07T17:30:22.107Z,15.57
2023-05-07T17:32:49.654Z,15.87
2023-05-07T17:35:17.199Z,15.73
2023-05-07T17:37:52.301Z,19.97
2023-05-07T17:40:22.797Z,18.97
2023-05-07T17:42:51.317Z,18.40
2023-05-07T17:45:19.724Z,18.53
2023-05-07T17:47:47.190Z,21.20
2023-05-07T17:50:15.108Z,26.73
2023-05-07T17:52:42.668Z,33.08
2023-05-07T17:55:10.876Z,37.60
2023-05-07T17:57:38.687Z,26.23
2023-05-07T18:00:10.566Z,23.37
2023-05-07T18:02:38.451Z,19.60
2023-05-07T18:05:06.169Z,18.50
2023-05-07T18:07:33.809Z,21.50
2023-05-07T18:10:01.290Z,18.33
2023-05-07T18:12:28.648Z,19.63
2023-05-07T18:14:56.155Z,20.90
2023-05-07T18:17:24.500Z,17.55
2023-05-07T18:19:54.708Z,20.23
2023-05-07T18:22:22.693Z,19.87
2023-05-07T18:24:51.147Z,21.95
2023-05-07T18:27:18.874Z,16.10
2023-05-07T18:29:46.389Z,17.88
2023-05-07T18:32:14.375Z,18.52
2023-05-07T18:34:41.879Z,19.30
2023-05-07T18:37:09.311Z,20.85
2023-05-07T18:39:36.951Z,20.30
2023-05-07T18:42:08.688Z,20.77
2023-05-07T18:44:38.594Z,20.30
2023-05-07T18:47:06.555Z,20.60
2023-05-07T18:49:34.799Z,22.33
2023-05-07T18:52:02.593Z,20.23
2023-05-07T18:54:30.119Z,20.00
2023-05-07T18:56:57.471Z,23.23
2023-05-07T18:59:25.170Z,17.13
2023-05-07T19:01:52.782Z,17.20
2023-05-07T19:04:20.532Z,18.43
2023-05-07T19:06:48.146Z,17.53
2023-05-07T19:09:15.637Z,19.70
2023-05-07T19:11:43.088Z,18.92
2023-05-07T19:14:11.175Z,20.33
2023-05-07T19:16:38.798Z,18.90
2023-05-07T19:19:06.855Z,19.83
2023-05-07T19:21:34.210Z,17.17
2023-05-07T19:24:01.550Z,23.07
2023-05-07T19:26:29.040Z,18.58
2023-05-07T19:29:12.448Z,17.00
2023-05-07T19:31:44.449Z,18.03
2023-05-07T19:34:14.162Z,16.77
2023-05-07T19:36:41.907Z,15.33
2023-05-07T19:39:09.354Z,12.40
2023-05-07T19:41:37.261Z,15.57
2023-05-07T19:44:04.760Z,17.00
2023-05-07T19:46:32.182Z,15.07
2023-05-07T19:48:59.791Z,16.63
2023-05-07T19:51:32.426Z,13.77
2023-05-07T19:54:00.273Z,15.47
2023-05-07T19:56:27.854Z,15.67
2023-05-07T19:58:57.269Z,14.07
2023-05-07T20:01:25.394Z,12.67
2023-05-07T20:03:52.998Z,13.00
2023-05-07T20:06:20.658Z,16.00
2023-05-07T20:08:48.386Z,15.30
2023-05-07T20:11:16.012Z,12.27
2023-05-07T20:13:43.695Z,14.30
2023-05-07T20:16:11.740Z,14.33
2023-05-07T20:18:39.318Z,12.50
2023-05-07T20:21:07.383Z,12.13
2023-05-07T20:23:34.820Z,12.77
2023-05-07T20:26:02.324Z,12.80
2023-05-07T20:28:29.707Z,14.07
2023-05-07T20:30:57.381Z,13.00
2023-05-07T20:33:25.138Z,13.27
2023-05-07T20:35:52.545Z,13.53
2023-05-07T20:38:20.039Z,12.73
2023-05-07T20:40:47.577Z,12.73
2023-05-07T20:43:15.168Z,11.03
2023-05-07T20:45:43.273Z,12.50
2023-05-07T20:48:12.588Z,13.87
2023-05-07T20:50:40.519Z,15.33
2023-05-07T20:53:08.011Z,15.27
2023-05-07T20:55:35.687Z,18.50
2023-05-07T20:58:03.472Z,17.57
2023-05-07T21:00:33.026Z,19.80
2023-05-07T21:03:04.433Z,19.73
2023-05-07T21:05:45.157Z,19.10
2023-05-07T21:08:19.547Z,17.77
2023-05-07T21:10:48.370Z,18.37
2023-05-07T21:13:15.980Z,17.70
2023-05-07T21:15:43.532Z,16.70
2023-05-07T21:18:13.470Z,15.03
2023-05-07T21:20:42.751Z,15.60
2023-05-07T21:23:10.736Z,15.60
2023-05-07T21:25:41.711Z,15.33
2023-05-07T21:28:09.638Z,15.70
2023-05-07T21:30:37.985Z,14.80
2023-05-07T21:33:08.290Z,14.80
2023-05-07T21:35:36.523Z,17.60
2023-05-07T21:38:04.174Z,15.07
2023-05-07T21:40:31.689Z,15.67
2023-05-07T21:43:02.523Z,14.80
2023-05-07T21:45:30.179Z,17.03
2023-05-07T21:47:58.756Z,16.97
2023-05-07T21:50:26.875Z,14.53
2023-05-07T21:52:54.297Z,16.70
2023-05-07T21:55:21.753Z,15.83
2023-05-07T21:58:01.164Z,16.90
2023-05-07T22:00:32.019Z,15.47
2023-05-07T22:02:59.416Z,15.57
2023-05-07T22:05:27.036Z,14.13
2023-05-07T22:07:54.501Z,15.93
2023-05-07T22:10:23.136Z,14.43
2023-05-07T22:12:51.010Z,14.07
2023-05-07T22:15:18.469Z,15.53
2023-05-07T22:17:45.878Z,14.40
2023-05-07T22:20:13.598Z,13.20
2023-05-07T22:22:52.516Z,12.77
2023-05-07T22:25:20.649Z,11.13
2023-05-07T22:27:47.990Z,16.73
2023-05-07T22:30:15.425Z,11.50
2023-05-07T22:32:43.594Z,10.47
2023-05-07T22:35:11.700Z,12.67
2023-05-07T22:37:39.392Z,12.57
2023-05-07T22:40:07.302Z,13.00
2023-05-07T22:42:34.788Z,12.47
2023-05-07T22:45:02.481Z,12.17
2023-05-07T22:47:31.433Z,10.27
2023-05-07T22:49:58.887Z,8.47
2023-05-07T22:52:26.450Z,11.90
2023-05-07T22:54:53.898Z,14.17
2023-05-07T22:57:21.286Z,12.13
2023-05-07T22:59:48.661Z,11.87
2023-05-07T23:02:16.120Z,13.07
2023-05-07T23:04:43.656Z,12.53
2023-05-07T23:07:11.080Z,10.80
2023-05-07T23:09:38.574Z,11.67
2023-05-07T23:12:06.297Z,10.07
2023-05-07T23:14:33.741Z,11.43
2023-05-07T23:17:01.145Z,10.60
2023-05-07T23:19:28.600Z,11.00
2023-05-07T23:21:56.056Z,10.50
2023-05-07T23:24:23.395Z,12.43
2023-05-07T23:26:50.846Z,14.00
2023-05-07T23:29:18.199Z,13.47
2023-05-07T23:31:45.836Z,11.83
2023-05-07T23:34:13.458Z,13.53
2023-05-07T23:36:40.863Z,13.23
2023-05-07T23:39:08.205Z,14.70
2023-05-07T23:41:35.902Z,14.37
2023-05-07T23:44:03.246Z,11.93
2023-05-07T23:46:30.761Z,11.67
2023-05-07T23:48:58.158Z,13.10
2023-05-07T23:51:25.556Z,13.70
2023-05-07T23:53:53.045Z,15.03
2023-05-07T23:56:20.552Z,14.97
2023-05-07T23:58:48.037Z,11.20
